sensor_id;sensor_type;location;lat;lon;timestamp;pressure;altitude;pressure_sealevel;temperature;humidity
45793;BME280;31495;42.740;22.908;2023-05-03T00:00:09;93335.31;;;12.64;47.13
45793;BME280;31495;42.740;22.908;2023-05-03T00:01:11;93332.94;;;12.62;47.33
45793;BME280;31495;42.740;22.908;2023-05-03T00:02:11;93367.13;;;12.78;47.22
45793;BME280;31495;42.740;22.908;2023-05-03T00:03:10;93340.66;;;12.69;47.46
45793;BME280;31495;42.740;22.908;2023-05-03T00:04:11;93331.44;;;12.55;47.64
45793;BME280;31495;42.740;22.908;2023-05-03T00:05:12;93353.41;;;12.71;47.66
45793;BME280;31495;42.740;22.908;2023-05-03T00:06:14;93360.13;;;12.78;47.08
45793;BME280;31495;42.740;22.908;2023-05-03T00:07:14;93333.41;;;12.59;46.85
45793;BME280;31495;42.740;22.908;2023-05-03T00:08:15;93346.38;;;12.78;46.71
45793;BME280;31495;42.740;22.908;2023-05-03T00:09:15;93335.72;;;12.67;46.64
45793;BME280;31495;42.740;22.908;2023-05-03T00:10:14;93312.34;;;12.49;45.88
45793;BME280;31495;42.740;22.908;2023-05-03T00:11:14;93370.88;;;12.82;45.64
45793;BME280;31495;42.740;22.908;2023-05-03T00:12:14;93371.69;;;12.82;46.46
45793;BME280;31495;42.740;22.908;2023-05-03T00:13:13;93334.13;;;12.66;46.10
45793;BME280;31495;42.740;22.908;2023-05-03T00:14:13;93322.22;;;12.59;45.67
45793;BME280;31495;42.740;22.908;2023-05-03T00:15:12;93344.13;;;12.63;45.53
45793;BME280;31495;42.740;22.908;2023-05-03T00:16:11;93370.88;;;12.82;45.39
45793;BME280;31495;42.740;22.908;2023-05-03T00:17:11;93340.38;;;12.40;45.94
45793;BME280;31495;42.740;22.908;2023-05-03T00:18:11;93363.75;;;12.59;45.47
45793;BME280;31495;42.740;22.908;2023-05-03T00:19:10;93335.13;;;12.47;44.98
45793;BME280;31495;42.740;22.908;2023-05-03T00:20:10;93371.66;;;12.64;44.97
45793;BME280;31495;42.740;22.908;2023-05-03T00:21:10;93377.00;;;12.69;45.38
45793;BME280;31495;42.740;22.908;2023-05-03T00:22:09;93371.59;;;12.71;45.47
45793;BME280;31495;42.740;22.908;2023-05-03T00:23:11;93363.44;;;12.67;46.17
45793;BME280;31495;42.740;22.908;2023-05-03T00:24:10;93361.88;;;12.66;45.44
45793;BME280;31495;42.740;22.908;2023-05-03T00:25:09;93351.56;;;12.59;45.72
45793;BME280;31495;42.740;22.908;2023-05-03T00:26:09;93363.94;;;12.57;44.82
45793;BME280;31495;42.740;22.908;2023-05-03T00:27:08;93341.81;;;12.36;44.54
45793;BME280;31495;42.740;22.908;2023-05-03T00:28:08;93385.16;;;12.54;44.33
45793;BME280;31495;42.740;22.908;2023-05-03T00:29:08;93346.63;;;12.32;44.14
45793;BME280;31495;42.740;22.908;2023-05-03T00:30:07;93372.63;;;12.51;44.29
45793;BME280;31495;42.740;22.908;2023-05-03T00:31:09;93346.94;;;12.43;44.54
45793;BME280;31495;42.740;22.908;2023-05-03T00:32:08;93348.88;;;12.47;45.15
45793;BME280;31495;42.740;22.908;2023-05-03T00:33:09;93378.25;;;12.66;45.36
45793;BME280;31495;42.740;22.908;2023-05-03T00:34:09;93367.56;;;12.56;45.69
45793;BME280;31495;42.740;22.908;2023-05-03T00:35:09;93378.59;;;12.52;45.87
45793;BME280;31495;42.740;22.908;2023-05-03T00:36:09;93372.75;;;12.56;45.20
45793;BME280;31495;42.740;22.908;2023-05-03T00:37:09;93358.91;;;12.44;45.10
45793;BME280;31495;42.740;22.908;2023-05-03T00:38:08;93355.09;;;12.46;44.46
45793;BME280;31495;42.740;22.908;2023-05-03T00:39:08;93338.84;;;12.32;44.69
45793;BME280;31495;42.740;22.908;2023-05-03T00:40:08;93325.75;;;12.27;44.65
45793;BME280;31495;42.740;22.908;2023-05-03T00:41:09;93355.81;;;12.54;44.22
45793;BME280;31495;42.740;22.908;2023-05-03T00:42:09;93316.53;;;12.31;44.67
45793;BME280;31495;42.740;22.908;2023-05-03T00:43:10;93343.69;;;12.47;44.14
45793;BME280;31495;42.740;22.908;2023-05-03T00:44:10;93379.03;;;12.67;44.09
45793;BME280;31495;42.740;22.908;2023-05-03T00:45:10;93373.84;;;12.67;44.01
45793;BME280;31495;42.740;22.908;2023-05-03T00:46:10;93373.53;;;12.75;43.77
45793;BME280;31495;42.740;22.908;2023-05-03T00:47:09;93347.75;;;12.62;43.25
45793;BME280;31495;42.740;22.908;2023-05-03T00:48:11;93357.75;;;12.77;43.71
45793;BME280;31495;42.740;22.908;2023-05-03T00:49:10;93376.88;;;12.82;44.08
45793;BME280;31495;42.740;22.908;2023-05-03T00:50:10;93367.22;;;12.71;43.20
45793;BME280;31495;42.740;22.908;2023-05-03T00:51:12;93368.56;;;12.74;43.01
45793;BME280;31495;42.740;22.908;2023-05-03T00:52:12;93374.72;;;12.79;43.00
45793;BME280;31495;42.740;22.908;2023-05-03T00:53:12;93375.50;;;12.80;43.24
45793;BME280;31495;42.740;22.908;2023-05-03T00:54:12;93366.72;;;12.81;43.56
45793;BME280;31495;42.740;22.908;2023-05-03T00:55:13;93354.09;;;12.66;44.06
45793;BME280;31495;42.740;22.908;2023-05-03T00:56:17;93341.41;;;12.58;43.80
45793;BME280;31495;42.740;22.908;2023-05-03T00:57:19;93350.53;;;12.60;43.66
45793;BME280;31495;42.740;22.908;2023-05-03T00:58:21;93362.66;;;12.66;42.40
45793;BME280;31495;42.740;22.908;2023-05-03T00:59:20;93359.94;;;12.61;43.59
45793;BME280;31495;42.740;22.908;2023-05-03T01:00:19;93331.00;;;12.39;44.31
45793;BME280;31495;42.740;22.908;2023-05-03T01:01:20;93363.53;;;12.60;44.52
45793;BME280;31495;42.740;22.908;2023-05-03T01:02:20;93352.78;;;12.57;44.39
45793;BME280;31495;42.740;22.908;2023-05-03T01:03:20;93328.75;;;12.43;44.02
45793;BME280;31495;42.740;22.908;2023-05-03T01:04:20;93366.78;;;12.74;43.60
45793;BME280;31495;42.740;22.908;2023-05-03T01:05:20;93276.09;;;12.24;43.37
45793;BME280;31495;42.740;22.908;2023-05-03T01:06:51;93331.38;;;12.61;43.97
45793;BME280;31495;42.740;22.908;2023-05-03T01:09:14;93296.00;;;12.30;44.14
45793;BME280;31495;42.740;22.908;2023-05-03T01:11:54;93335.91;;;12.47;44.18
45793;BME280;31495;42.740;22.908;2023-05-03T01:13:12;93279.41;;;12.12;43.86
45793;BME280;31495;42.740;22.908;2023-05-03T01:14:35;93343.47;;;12.49;43.98
45793;BME280;31495;42.740;22.908;2023-05-03T01:17:01;93320.19;;;12.24;44.22
45793;BME280;31495;42.740;22.908;2023-05-03T01:18:11;93326.31;;;12.29;44.40
45793;BME280;31495;42.740;22.908;2023-05-03T01:19:28;93280.75;;;11.97;44.06
45793;BME280;31495;42.740;22.908;2023-05-03T01:20:33;93313.34;;;12.11;44.47
45793;BME280;31495;42.740;22.908;2023-05-03T01:21:36;93329.31;;;12.26;44.12
45793;BME280;31495;42.740;22.908;2023-05-03T01:24:07;93271.59;;;11.94;44.05
45793;BME280;31495;42.740;22.908;2023-05-03T01:25:13;93327.56;;;12.27;43.65
45793;BME280;31495;42.740;22.908;2023-05-03T01:26:24;93321.34;;;12.28;43.48
45793;BME280;31495;42.740;22.908;2023-05-03T01:27:24;93294.59;;;12.09;43.57
45793;BME280;31495;42.740;22.908;2023-05-03T01:28:23;93299.56;;;12.10;44.15
45793;BME280;31495;42.740;22.908;2023-05-03T01:29:23;93297.63;;;12.06;44.12
45793;BME280;31495;42.740;22.908;2023-05-03T01:30:25;93330.22;;;12.20;44.13
45793;BME280;31495;42.740;22.908;2023-05-03T01:31:32;93314.81;;;12.00;44.09
45793;BME280;31495;42.740;22.908;2023-05-03T01:33:38;93306.09;;;11.94;44.15
45793;BME280;31495;42.740;22.908;2023-05-03T01:34:55;93309.88;;;11.99;44.10
45793;BME280;31495;42.740;22.908;2023-05-03T01:36:25;93298.91;;;11.97;43.82
45793;BME280;31495;42.740;22.908;2023-05-03T01:37:27;93321.03;;;11.99;44.06
45793;BME280;31495;42.740;22.908;2023-05-03T01:38:29;93335.13;;;12.03;43.91
45793;BME280;31495;42.740;22.908;2023-05-03T01:40:41;93340.75;;;12.00;44.37
45793;BME280;31495;42.740;22.908;2023-05-03T01:41:41;93311.59;;;11.80;44.55
45793;BME280;31495;42.740;22.908;2023-05-03T01:42:41;93312.38;;;11.80;44.03
45793;BME280;31495;42.740;22.908;2023-05-03T01:43:42;93304.97;;;11.84;44.35
45793;BME280;31495;42.740;22.908;2023-05-03T01:44:43;93303.44;;;11.76;45.05
45793;BME280;31495;42.740;22.908;2023-05-03T01:45:44;93330.25;;;11.88;44.56
45793;BME280;31495;42.740;22.908;2023-05-03T01:46:44;93336.81;;;11.91;44.46
45793;BME280;31495;42.740;22.908;2023-05-03T01:47:44;93309.16;;;11.85;44.72
45793;BME280;31495;42.740;22.908;2023-05-03T01:48:44;93303.03;;;11.79;44.46
45793;BME280;31495;42.740;22.908;2023-05-03T01:49:43;93322.03;;;11.98;44.42
45793;BME280;31495;42.740;22.908;2023-05-03T01:50:43;93298.94;;;11.90;44.89
45793;BME280;31495;42.740;22.908;2023-05-03T01:51:43;93301.69;;;11.95;44.41
45793;BME280;31495;42.740;22.908;2023-05-03T01:52:42;93327.69;;;12.13;44.35
45793;BME280;31495;42.740;22.908;2023-05-03T01:53:43;93243.09;;;11.69;44.16
45793;BME280;31495;42.740;22.908;2023-05-03T01:54:43;93237.97;;;11.62;44.11
45793;BME280;31495;42.740;22.908;2023-05-03T01:55:42;93294.47;;;12.04;44.07
45793;BME280;31495;42.740;22.908;2023-05-03T01:56:41;93289.63;;;12.07;44.64
45793;BME280;31495;42.740;22.908;2023-05-03T01:57:41;93302.88;;;12.18;44.41
45793;BME280;31495;42.740;22.908;2023-05-03T01:58:40;93304.69;;;12.17;44.37
45793;BME280;31495;42.740;22.908;2023-05-03T01:59:39;93312.41;;;12.24;44.59
45793;BME280;31495;42.740;22.908;2023-05-03T02:00:39;93276.72;;;12.01;44.81
45793;BME280;31495;42.740;22.908;2023-05-03T02:01:39;93315.91;;;12.11;44.74
45793;BME280;31495;42.740;22.908;2023-05-03T02:02:38;93239.75;;;11.62;45.37
45793;BME280;31495;42.740;22.908;2023-05-03T02:03:37;93274.59;;;11.91;44.73
45793;BME280;31495;42.740;22.908;2023-05-03T02:04:37;93255.81;;;11.70;44.22
45793;BME280;31495;42.740;22.908;2023-05-03T02:05:36;93300.06;;;12.01;44.69
45793;BME280;31495;42.740;22.908;2023-05-03T02:06:36;93276.41;;;11.90;44.79
45793;BME280;31495;42.740;22.908;2023-05-03T02:07:35;93235.09;;;11.70;44.53
45793;BME280;31495;42.740;22.908;2023-05-03T02:08:34;93252.53;;;11.82;44.42
45793;BME280;31495;42.740;22.908;2023-05-03T02:09:34;93280.09;;;12.01;44.82
45793;BME280;31495;42.740;22.908;2023-05-03T02:10:34;93295.69;;;12.20;44.46
45793;BME280;31495;42.740;22.908;2023-05-03T02:11:34;93293.09;;;12.20;44.10
45793;BME280;31495;42.740;22.908;2023-05-03T02:12:33;93295.19;;;12.11;43.76
45793;BME280;31495;42.740;22.908;2023-05-03T02:13:33;93296.63;;;12.07;43.98
45793;BME280;31495;42.740;22.908;2023-05-03T02:14:34;93276.91;;;11.81;44.43
45793;BME280;31495;42.740;22.908;2023-05-03T02:15:33;93276.94;;;11.74;44.25
45793;BME280;31495;42.740;22.908;2023-05-03T02:16:33;93276.56;;;11.70;44.39
45793;BME280;31495;42.740;22.908;2023-05-03T02:17:32;93278.00;;;11.66;44.27
45793;BME280;31495;42.740;22.908;2023-05-03T02:18:32;93299.00;;;11.83;44.20
45793;BME280;31495;42.740;22.908;2023-05-03T02:19:32;93277.03;;;11.61;44.62
45793;BME280;31495;42.740;22.908;2023-05-03T02:20:33;93263.78;;;11.50;44.49
45793;BME280;31495;42.740;22.908;2023-05-03T02:21:36;93289.16;;;11.67;44.89
45793;BME280;31495;42.740;22.908;2023-05-03T02:22:35;93237.56;;;11.40;44.24
45793;BME280;31495;42.740;22.908;2023-05-03T02:23:35;93283.56;;;11.70;44.00
45793;BME280;31495;42.740;22.908;2023-05-03T02:24:34;93247.50;;;11.43;44.68
45793;BME280;31495;42.740;22.908;2023-05-03T02:25:34;93271.81;;;11.67;44.44
45793;BME280;31495;42.740;22.908;2023-05-03T02:26:33;93290.84;;;11.80;44.22
45793;BME280;31495;42.740;22.908;2023-05-03T02:27:33;93303.75;;;11.86;44.16
45793;BME280;31495;42.740;22.908;2023-05-03T02:28:32;93295.81;;;11.81;44.09
45793;BME280;31495;42.740;22.908;2023-05-03T02:29:32;93306.34;;;11.86;44.12
45793;BME280;31495;42.740;22.908;2023-05-03T02:30:33;93294.25;;;11.55;45.45
45793;BME280;31495;42.740;22.908;2023-05-03T02:31:33;93308.47;;;11.71;44.85
45793;BME280;31495;42.740;22.908;2023-05-03T02:32:33;93296.72;;;11.68;44.76
45793;BME280;31495;42.740;22.908;2023-05-03T02:33:32;93314.75;;;11.82;44.60
45793;BME280;31495;42.740;22.908;2023-05-03T02:34:32;93313.97;;;11.81;44.63
45793;BME280;31495;42.740;22.908;2023-05-03T02:35:31;93308.63;;;11.76;45.08
45793;BME280;31495;42.740;22.908;2023-05-03T02:36:31;93291.44;;;11.56;45.14
45793;BME280;31495;42.740;22.908;2023-05-03T02:37:30;93297.84;;;11.79;44.58
45793;BME280;31495;42.740;22.908;2023-05-03T02:38:30;93278.50;;;11.56;44.11
45793;BME280;31495;42.740;22.908;2023-05-03T02:39:29;93296.56;;;11.63;44.68
45793;BME280;31495;42.740;22.908;2023-05-03T02:40:29;93310.72;;;11.61;43.88
45793;BME280;31495;42.740;22.908;2023-05-03T02:41:29;93285.34;;;11.44;44.34
45793;BME280;31495;42.740;22.908;2023-05-03T02:42:28;93310.72;;;11.61;44.72
45793;BME280;31495;42.740;22.908;2023-05-03T02:43:27;93305.50;;;11.67;44.75
45793;BME280;31495;42.740;22.908;2023-05-03T02:44:27;93316.41;;;11.76;45.00
45793;BME280;31495;42.740;22.908;2023-05-03T02:45:27;93264.88;;;11.36;44.19
45793;BME280;31495;42.740;22.908;2023-05-03T02:46:26;93297.88;;;11.47;43.73
45793;BME280;31495;42.740;22.908;2023-05-03T02:47:26;93302.69;;;11.44;44.54
45793;BME280;31495;42.740;22.908;2023-05-03T02:48:25;93277.78;;;11.17;45.10
45793;BME280;31495;42.740;22.908;2023-05-03T02:49:25;93311.09;;;11.39;44.50
45793;BME280;31495;42.740;22.908;2023-05-03T02:50:24;93327.78;;;11.50;44.13
45793;BME280;31495;42.740;22.908;2023-05-03T02:51:25;93306.38;;;11.29;43.52
45793;BME280;31495;42.740;22.908;2023-05-03T02:52:25;93324.22;;;11.44;43.65
45793;BME280;31495;42.740;22.908;2023-05-03T02:53:24;93321.03;;;11.42;43.89
45793;BME280;31495;42.740;22.908;2023-05-03T02:54:24;93323.50;;;11.30;44.72
45793;BME280;31495;42.740;22.908;2023-05-03T02:55:23;93309.22;;;11.21;45.41
45793;BME280;31495;42.740;22.908;2023-05-03T02:56:23;93280.69;;;10.96;45.31
45793;BME280;31495;42.740;22.908;2023-05-03T02:57:24;93326.88;;;11.31;45.37
45793;BME280;31495;42.740;22.908;2023-05-03T02:58:24;93276.31;;;10.96;45.39
45793;BME280;31495;42.740;22.908;2023-05-03T02:59:23;93323.72;;;11.29;45.24
45793;BME280;31495;42.740;22.908;2023-05-03T03:00:23;93286.63;;;11.03;45.30
45793;BME280;31495;42.740;22.908;2023-05-03T03:01:22;93328.91;;;11.29;44.70
45793;BME280;31495;42.740;22.908;2023-05-03T03:02:22;93302.28;;;11.15;45.33
45793;BME280;31495;42.740;22.908;2023-05-03T03:03:22;93302.47;;;11.13;45.57
45793;BME280;31495;42.740;22.908;2023-05-03T03:04:21;93316.38;;;11.26;45.29
45793;BME280;31495;42.740;22.908;2023-05-03T03:05:20;93312.19;;;11.25;45.56
45793;BME280;31495;42.740;22.908;2023-05-03T03:06:20;93312.19;;;11.25;45.58
45793;BME280;31495;42.740;22.908;2023-05-03T03:07:19;93319.31;;;11.29;45.00
45793;BME280;31495;42.740;22.908;2023-05-03T03:08:19;93320.75;;;11.25;44.90
45793;BME280;31495;42.740;22.908;2023-05-03T03:09:18;93308.81;;;11.24;44.73
45793;BME280;31495;42.740;22.908;2023-05-03T03:10:18;93302.06;;;11.16;44.89
45793;BME280;31495;42.740;22.908;2023-05-03T03:11:18;93329.84;;;11.34;45.59
45793;BME280;31495;42.740;22.908;2023-05-03T03:12:17;93287.81;;;11.07;45.57
45793;BME280;31495;42.740;22.908;2023-05-03T03:13:16;93335.06;;;11.28;45.31
45793;BME280;31495;42.740;22.908;2023-05-03T03:14:16;93326.88;;;11.31;44.79
45793;BME280;31495;42.740;22.908;2023-05-03T03:15:15;93307.91;;;11.12;44.72
45793;BME280;31495;42.740;22.908;2023-05-03T03:16:14;93318.00;;;11.20;45.13
45793;BME280;31495;42.740;22.908;2023-05-03T03:17:14;93331.31;;;11.24;44.61
45793;BME280;31495;42.740;22.908;2023-05-03T03:18:14;93284.69;;;10.92;45.07
45793;BME280;31495;42.740;22.908;2023-05-03T03:19:13;93294.59;;;11.01;44.72
45793;BME280;31495;42.740;22.908;2023-05-03T03:20:13;93341.06;;;11.28;45.18
45793;BME280;31495;42.740;22.908;2023-05-03T03:21:14;93337.09;;;11.26;45.55
45793;BME280;31495;42.740;22.908;2023-05-03T03:22:13;93350.00;;;11.32;45.43
45793;BME280;31495;42.740;22.908;2023-05-03T03:23:12;93300.78;;;11.00;45.36
45793;BME280;31495;42.740;22.908;2023-05-03T03:24:12;93337.88;;;11.26;45.21
45793;BME280;31495;42.740;22.908;2023-05-03T03:25:12;93321.59;;;11.19;45.14
45793;BME280;31495;42.740;22.908;2023-05-03T03:26:11;93341.66;;;11.30;45.80
45793;BME280;31495;42.740;22.908;2023-05-03T03:27:11;93333.53;;;11.20;45.74
45793;BME280;31495;42.740;22.908;2023-05-03T03:28:10;93298.97;;;11.01;45.35
45793;BME280;31495;42.740;22.908;2023-05-03T03:29:10;93337.09;;;11.26;45.23
45793;BME280;31495;42.740;22.908;2023-05-03T03:30:09;93302.06;;;11.16;45.45
45793;BME280;31495;42.740;22.908;2023-05-03T03:31:09;93314.41;;;11.21;45.74
45793;BME280;31495;42.740;22.908;2023-05-03T03:32:09;93311.22;;;11.19;45.06
45793;BME280;31495;42.740;22.908;2023-05-03T03:33:08;93326.41;;;11.15;45.88
45793;BME280;31495;42.740;22.908;2023-05-03T03:34:08;93306.38;;;10.97;45.79
45793;BME280;31495;42.740;22.908;2023-05-03T03:35:08;93351.22;;;11.23;45.84
45793;BME280;31495;42.740;22.908;2023-05-03T03:36:08;93338.88;;;11.25;45.84
45793;BME280;31495;42.740;22.908;2023-05-03T03:37:08;93323.81;;;11.15;45.72
45793;BME280;31495;42.740;22.908;2023-05-03T03:38:08;93280.31;;;10.92;45.30
45793;BME280;31495;42.740;22.908;2023-05-03T03:39:07;93334.28;;;11.27;45.75
45793;BME280;31495;42.740;22.908;2023-05-03T03:40:07;93327.09;;;11.29;45.37
45793;BME280;31495;42.740;22.908;2023-05-03T03:41:07;93345.34;;;11.41;45.31
45793;BME280;31495;42.740;22.908;2023-05-03T03:42:09;93324.03;;;11.39;45.18
45793;BME280;31495;42.740;22.908;2023-05-03T03:43:09;93312.94;;;11.32;44.41
45793;BME280;31495;42.740;22.908;2023-05-03T03:44:09;93347.44;;;11.57;44.86
45793;BME280;31495;42.740;22.908;2023-05-03T03:45:09;93332.59;;;11.46;45.00
45793;BME280;31495;42.740;22.908;2023-05-03T03:46:09;93357.22;;;11.55;44.60
45793;BME280;31495;42.740;22.908;2023-05-03T03:47:08;93356.13;;;11.45;45.58
45793;BME280;31495;42.740;22.908;2023-05-03T03:48:08;93312.84;;;11.13;46.10
45793;BME280;31495;42.740;22.908;2023-05-03T03:49:07;93329.19;;;11.14;45.70
45793;BME280;31495;42.740;22.908;2023-05-03T03:50:08;93335.16;;;11.14;45.83
45793;BME280;31495;42.740;22.908;2023-05-03T03:51:07;93336.75;;;11.15;45.55
45793;BME280;31495;42.740;22.908;2023-05-03T03:52:07;93364.97;;;11.30;45.88
45793;BME280;31495;42.740;22.908;2023-05-03T03:53:07;93352.03;;;11.24;45.83
45793;BME280;31495;42.740;22.908;2023-05-03T03:54:09;93336.59;;;11.10;46.46
45793;BME280;31495;42.740;22.908;2023-05-03T03:55:09;93331.41;;;11.10;46.56
45793;BME280;31495;42.740;22.908;2023-05-03T03:56:08;93336.16;;;11.13;46.68
45793;BME280;31495;42.740;22.908;2023-05-03T03:57:08;93335.31;;;11.19;45.95
45793;BME280;31495;42.740;22.908;2023-05-03T03:58:08;93330.75;;;11.21;45.87
45793;BME280;31495;42.740;22.908;2023-05-03T03:59:07;93362.56;;;11.29;45.85
45793;BME280;31495;42.740;22.908;2023-05-03T04:00:07;93353.44;;;11.19;46.42
45793;BME280;31495;42.740;22.908;2023-05-03T04:01:08;93344.34;;;11.10;46.45
45793;BME280;31495;42.740;22.908;2023-05-03T04:02:08;93346.13;;;11.10;46.54
45793;BME280;31495;42.740;22.908;2023-05-03T04:03:07;93331.66;;;11.02;46.08
45793;BME280;31495;42.740;22.908;2023-05-03T04:04:06;93357.84;;;11.19;46.39
45793;BME280;31495;42.740;22.908;2023-05-03T04:05:06;93352.28;;;11.15;46.82
45793;BME280;31495;42.740;22.908;2023-05-03T04:06:06;93371.28;;;11.34;46.59
45793;BME280;31495;42.740;22.908;2023-05-03T04:07:06;93374.91;;;11.33;46.09
45793;BME280;31495;42.740;22.908;2023-05-03T04:08:05;93345.09;;;11.17;46.18
45793;BME280;31495;42.740;22.908;2023-05-03T04:09:05;93344.94;;;11.12;46.28
45793;BME280;31495;42.740;22.908;2023-05-03T04:10:05;93352.88;;;11.17;46.36
45793;BME280;31495;42.740;22.908;2023-05-03T04:11:09;93357.31;;;11.10;46.31
45793;BME280;31495;42.740;22.908;2023-05-03T04:12:10;93365.41;;;11.20;46.91
45793;BME280;31495;42.740;22.908;2023-05-03T04:13:10;93353.13;;;11.09;46.52
45793;BME280;31495;42.740;22.908;2023-05-03T04:14:10;93373.94;;;11.28;46.59
45793;BME280;31495;42.740;22.908;2023-05-03T04:15:10;93350.13;;;11.12;46.51
45793;BME280;31495;42.740;22.908;2023-05-03T04:16:09;93351.13;;;11.04;46.45
45793;BME280;31495;42.740;22.908;2023-05-03T04:17:09;93376.50;;;11.28;47.71
45793;BME280;31495;42.740;22.908;2023-05-03T04:18:09;93353.59;;;10.93;45.72
45793;BME280;31495;42.740;22.908;2023-05-03T04:19:08;93367.25;;;11.07;45.69
45793;BME280;31495;42.740;22.908;2023-05-03T04:20:08;93370.06;;;11.05;45.48
45793;BME280;31495;42.740;22.908;2023-05-03T04:21:10;93372.00;;;11.16;45.84
45793;BME280;31495;42.740;22.908;2023-05-03T04:22:09;93392.91;;;11.21;46.41
45793;BME280;31495;42.740;22.908;2023-05-03T04:23:09;93355.38;;;10.99;46.63
45793;BME280;31495;42.740;22.908;2023-05-03T04:24:14;93398.28;;;11.20;47.13
45793;BME280;31495;42.740;22.908;2023-05-03T04:25:14;93355.78;;;10.96;46.62
45793;BME280;31495;42.740;22.908;2023-05-03T04:26:15;93412.19;;;11.26;47.03
45793;BME280;31495;42.740;22.908;2023-05-03T04:27:15;93309.34;;;10.56;47.68
45793;BME280;31495;42.740;22.908;2023-05-03T04:28:16;93376.63;;;11.08;47.57
45793;BME280;31495;42.740;22.908;2023-05-03T04:29:16;93351.22;;;10.91;47.02
45793;BME280;31495;42.740;22.908;2023-05-03T04:30:18;93382.19;;;11.11;47.46
45793;BME280;31495;42.740;22.908;2023-05-03T04:31:17;93402.03;;;11.24;47.68
45793;BME280;31495;42.740;22.908;2023-05-03T04:32:19;93412.38;;;11.31;47.41
45793;BME280;31495;42.740;22.908;2023-05-03T04:33:23;93423.50;;;11.38;47.26
45793;BME280;31495;42.740;22.908;2023-05-03T04:34:22;93408.41;;;11.28;47.54
45793;BME280;31495;42.740;22.908;2023-05-03T04:35:23;93384.94;;;11.16;47.15
45793;BME280;31495;42.740;22.908;2023-05-03T04:36:22;93407.97;;;11.31;47.22
45793;BME280;31495;42.740;22.908;2023-05-03T04:37:24;93412.34;;;11.37;46.79
45793;BME280;31495;42.740;22.908;2023-05-03T04:38:23;93374.25;;;11.06;46.67
45793;BME280;31495;42.740;22.908;2023-05-03T04:39:23;93374.41;;;11.11;46.61
45793;BME280;31495;42.740;22.908;2023-05-03T04:40:22;93416.34;;;11.33;46.54
45793;BME280;31495;42.740;22.908;2023-05-03T04:41:22;93425.22;;;11.51;46.59
45793;BME280;31495;42.740;22.908;2023-05-03T04:42:22;93373.38;;;11.19;46.56
45793;BME280;31495;42.740;22.908;2023-05-03T04:43:22;93396.78;;;11.37;46.54
45793;BME280;31495;42.740;22.908;2023-05-03T04:44:21;93400.16;;;11.45;46.59
45793;BME280;31495;42.740;22.908;2023-05-03T04:45:20;93426.41;;;11.55;46.36
45793;BME280;31495;42.740;22.908;2023-05-03T04:46:20;93324.16;;;10.87;46.32
45793;BME280;31495;42.740;22.908;2023-05-03T04:47:19;93417.81;;;11.61;46.62
45793;BME280;31495;42.740;22.908;2023-05-03T04:48:20;93396.59;;;11.39;46.33
45793;BME280;31495;42.740;22.908;2023-05-03T04:49:19;93422.16;;;11.61;46.70
45793;BME280;31495;42.740;22.908;2023-05-03T04:50:18;93403.31;;;11.47;47.12
45793;BME280;31495;42.740;22.908;2023-05-03T04:51:18;93388.00;;;11.45;46.92
45793;BME280;31495;42.740;22.908;2023-05-03T04:52:17;93391.34;;;11.46;46.96
45793;BME280;31495;42.740;22.908;2023-05-03T04:53:17;93416.00;;;11.62;46.77
45793;BME280;31495;42.740;22.908;2023-05-03T04:54:16;93418.00;;;11.59;47.19
45793;BME280;31495;42.740;22.908;2023-05-03T04:55:15;93430.88;;;11.73;46.88
45793;BME280;31495;42.740;22.908;2023-05-03T04:56:15;93383.84;;;11.37;46.72
45793;BME280;31495;42.740;22.908;2023-05-03T04:57:14;93417.81;;;11.61;46.14
45793;BME280;31495;42.740;22.908;2023-05-03T04:58:14;93411.56;;;11.69;47.05
45793;BME280;31495;42.740;22.908;2023-05-03T04:59:13;93423.25;;;11.78;47.56
45793;BME280;31495;42.740;22.908;2023-05-03T05:00:13;93437.19;;;11.84;47.59
45793;BME280;31495;42.740;22.908;2023-05-03T05:01:13;93421.81;;;11.82;47.52
45793;BME280;31495;42.740;22.908;2023-05-03T05:02:12;93407.19;;;11.69;46.93
45793;BME280;31495;42.740;22.908;2023-05-03T05:03:11;93413.31;;;11.75;47.37
45793;BME280;31495;42.740;22.908;2023-05-03T05:04:11;93427.72;;;11.71;47.43
45793;BME280;31495;42.740;22.908;2023-05-03T05:05:11;93419.97;;;11.64;47.78
45793;BME280;31495;42.740;22.908;2023-05-03T05:06:10;93435.66;;;11.76;47.37
45793;BME280;31495;42.740;22.908;2023-05-03T05:07:11;93432.25;;;11.75;47.87
45793;BME280;31495;42.740;22.908;2023-05-03T05:08:11;93407.44;;;11.61;48.13
45793;BME280;31495;42.740;22.908;2023-05-03T05:09:22;93423.25;;;11.78;48.09
45793;BME280;31495;42.740;22.908;2023-05-03T05:10:22;93448.53;;;11.89;47.72
45793;BME280;31495;42.740;22.908;2023-05-03T05:11:21;93428.78;;;11.88;47.19
45793;BME280;31495;42.740;22.908;2023-05-03T05:12:22;93394.63;;;11.66;47.44
45793;BME280;31495;42.740;22.908;2023-05-03T05:13:22;93433.75;;;11.90;47.06
45793;BME280;31495;42.740;22.908;2023-05-03T05:14:22;93378.72;;;11.63;47.29
45793;BME280;31495;42.740;22.908;2023-05-03T05:15:21;93410.31;;;11.78;47.13
45793;BME280;31495;42.740;22.908;2023-05-03T05:16:20;93421.59;;;11.90;46.95
45793;BME280;31495;42.740;22.908;2023-05-03T05:17:22;93438.09;;;12.03;46.56
45793;BME280;31495;42.740;22.908;2023-05-03T05:18:21;93436.66;;;12.07;46.58
45793;BME280;31495;42.740;22.908;2023-05-03T05:19:20;93419.78;;;11.91;47.27
45793;BME280;31495;42.740;22.908;2023-05-03T05:20:20;93423.00;;;11.86;48.65
45793;BME280;31495;42.740;22.908;2023-05-03T05:21:19;93372.81;;;11.49;48.89
45793;BME280;31495;42.740;22.908;2023-05-03T05:22:19;93385.47;;;11.64;48.42
45793;BME280;31495;42.740;22.908;2023-05-03T05:23:19;93443.63;;;12.06;46.58
45793;BME280;31495;42.740;22.908;2023-05-03T05:24:19;93407.47;;;11.86;46.71